Niantic, CT (06357)

2:20 AM EDT on July 27, 2016 (GMT -0400)
Giants Neck Beach | | Change Station

Elev 78 ft 41.30 °N, 72.23 °W | Updated 5 days ago

Clear
Clear
68 °F
Feels Like 68 °F
N
3
Wind Variable Wind from North
Gusts mph

Today
High -- | Low -- °F
--% Chance of Precip.
Yesterday
High -- | Low -- °F
Precip. -- in
Pressure 29.90 in
Visibility 10.0 miles
Clouds Clear
Dew Point 63 °F
Humidity 82%
Rainfall in
Snow Depth Not available.
5:39 AM 8:10 PM
Waning Gibbous, 46% visible
METAR KGON 270556Z AUTO 35006KT 10SM CLR 24/17 A2990 RMK AO2 SLP124 T02440167 10294 20244 51004
Pressure 29.90 in
Visibility 10.0 miles
Clouds Clear
Dew Point 63 °F
Humidity 82%
Rainfall in
Snow Depth Not available.
5:39 AM 8:10 PM
Waning Gibbous, 46% visible
METAR KGON 270556Z AUTO 35006KT 10SM CLR 24/17 A2990 RMK AO2 SLP124 T02440167 10294 20244 51004

10-Day Weather Forecast

Almanac

Astronomy

Jul. 27, 2016 Rise Set
Actual Time
Civil Twilight
Nautical Twilight
Astronomical Twilight
Moon
Length of Visible Light
Length of Day
Tomorrow will be .
, % of the Moon is Illuminated

Today's Extremes

State Highs State Lows

Community

WunderPhotos

Upload Photos

1,927,818 photos uploaded!

WunderBlog® & News

Nearby

Air Quality

  Air Quality AQ Index Pollutant
Not available.

Snow Depth

Station Depth Elevation

Earthquake Activity

City Distance Mag. Time & Date
Minimum magnitude displayed is 2.5.

Coastal Water Temperatures

Place Temperature

Stations

Nearby Weather Stations

Station Location Temp. Windchill Dew Point Humidity Wind Precip. Elev Updated Type
                   

Watches & Warnings

There are currently no watches in effect.